createdAt,value
2023-01-23T00:01:05.183Z,103060.34
2023-01-23T00:03:32.248Z,103063.56
2023-01-23T00:05:59.515Z,103055.66
2023-01-23T00:08:26.700Z,103062.78
2023-01-23T00:10:53.385Z,103063.06
2023-01-23T00:13:20.866Z,103068.84
2023-01-23T00:15:47.894Z,103059.22
2023-01-23T00:18:14.932Z,103058.41
2023-01-23T00:20:41.781Z,103057.06
2023-01-23T00:23:09.077Z,103062.50
2023-01-23T00:25:36.174Z,103065.22
2023-01-23T00:28:03.213Z,103060.34
2023-01-23T00:30:29.704Z,103061.13
2023-01-23T00:32:56.233Z,103050.19
2023-01-23T00:35:23.020Z,103054.03
2023-01-23T00:37:49.515Z,103049.38
2023-01-23T00:40:16.222Z,103049.38
2023-01-23T00:42:42.684Z,103057.88
2023-01-23T00:45:09.394Z,103055.66
2023-01-23T00:47:35.879Z,103048.94
2023-01-23T00:50:02.418Z,103053.22
2023-01-23T00:52:29.327Z,103055.66
2023-01-23T00:54:55.762Z,103057.88
2023-01-23T00:57:22.195Z,103056.78
2023-01-23T00:59:48.690Z,103066.59
2023-01-23T01:02:15.129Z,103062.00
2023-01-23T01:04:41.601Z,103065.56
2023-01-23T01:07:08.081Z,103068.84
2023-01-23T01:09:34.578Z,103069.34
2023-01-23T01:12:01.050Z,103069.34
2023-01-23T01:14:27.484Z,103063.38
2023-01-23T01:16:53.933Z,103065.56
2023-01-23T01:19:20.361Z,103070.22
2023-01-23T01:21:47.300Z,103084.25
2023-01-23T01:24:13.809Z,103071.63
2023-01-23T01:26:40.568Z,103082.88
2023-01-23T01:29:07.101Z,103092.66
2023-01-23T01:31:33.761Z,103092.13
2023-01-23T01:34:00.335Z,103091.25
2023-01-23T01:36:27.462Z,103090.75
2023-01-23T01:38:54.002Z,103101.41
2023-01-23T01:41:20.558Z,103103.03
2023-01-23T01:43:47.093Z,103105.78
2023-01-23T01:46:19.412Z,103104.16
2023-01-23T01:48:57.309Z,103107.97
2023-01-23T01:51:26.475Z,103111.00
2023-01-23T01:54:02.503Z,103103.63
2023-01-23T01:56:32.147Z,103105.81
2023-01-23T01:59:01.792Z,103104.72
2023-01-23T02:01:28.470Z,103115.09
2023-01-23T02:03:55.497Z,103116.72
2023-01-23T02:06:22.404Z,103113.16
2023-01-23T02:09:04.598Z,103104.44
2023-01-23T02:11:31.484Z,103105.78
2023-01-23T02:13:58.009Z,103116.13
2023-01-23T02:16:29.469Z,103112.38
2023-01-23T02:19:02.092Z,103112.38
2023-01-23T02:21:29.573Z,103100.88
2023-01-23T02:24:01.811Z,103108.81
2023-01-23T02:26:32.901Z,103104.94
2023-01-23T02:28:59.557Z,103096.22
2023-01-23T02:31:26.343Z,103097.84
2023-01-23T02:33:57.813Z,103098.38
2023-01-23T02:36:28.782Z,103092.22
2023-01-23T02:39:13.347Z,103103.63
2023-01-23T02:41:45.454Z,103102.50
2023-01-23T02:44:12.231Z,103097.31
2023-01-23T02:46:39.015Z,103079.56
2023-01-23T02:49:05.744Z,103080.88
2023-01-23T02:51:32.560Z,103076.81
2023-01-23T02:53:59.240Z,103082.28
2023-01-23T02:56:25.714Z,103075.19
2023-01-23T02:59:10.719Z,103080.66
2023-01-23T03:01:37.279Z,103078.75
2023-01-23T03:04:06.477Z,103074.66
2023-01-23T03:06:37.912Z,103061.56
2023-01-23T03:09:10.696Z,103074.09
2023-01-23T03:11:39.201Z,103078.22
2023-01-23T03:14:08.112Z,103088.16
2023-01-23T03:16:36.638Z,103090.28
2023-01-23T03:19:08.803Z,103101.75
2023-01-23T03:21:40.467Z,103100.13
2023-01-23T03:24:09.719Z,103102.28
2023-01-23T03:26:41.942Z,103101.75
2023-01-23T03:29:31.211Z,103108.25
2023-01-23T03:31:57.684Z,103114.56
2023-01-23T03:34:24.116Z,103114.84
2023-01-23T03:36:50.632Z,103110.78
2023-01-23T03:39:35.794Z,103123.06
2023-01-23T03:42:02.264Z,103124.19
2023-01-23T03:44:28.705Z,103127.22
2023-01-23T03:46:55.130Z,103132.69
2023-01-23T03:49:22.081Z,103130.47
2023-01-23T03:51:48.659Z,103131.59
2023-01-23T03:54:15.162Z,103127.44
2023-01-23T03:56:42.545Z,103125.31
2023-01-23T03:59:09.266Z,103128.25
2023-01-23T04:01:36.667Z,103129.66
2023-01-23T04:04:03.813Z,103128.56
2023-01-23T04:06:30.505Z,103121.16
2023-01-23T04:08:58.224Z,103112.69
2023-01-23T04:11:26.588Z,103120.56
2023-01-23T04:13:54.431Z,103126.84
2023-01-23T04:16:22.792Z,103123.31
2023-01-23T04:18:50.543Z,103127.69
2023-01-23T04:21:17.356Z,103132.31
2023-01-23T04:23:44.103Z,103126.84
2023-01-23T04:26:10.514Z,103131.53
2023-01-23T04:28:36.999Z,103130.72
2023-01-23T04:31:03.906Z,103135.06
2023-01-23T04:33:30.492Z,103131.00
2023-01-23T04:36:00.314Z,103145.50
2023-01-23T04:38:28.532Z,103138.91
2023-01-23T04:40:55.626Z,103142.78
2023-01-23T04:43:22.353Z,103130.16
2023-01-23T04:45:53.445Z,103141.94
2023-01-23T04:48:19.995Z,103134.56
2023-01-23T04:50:46.450Z,103135.16
2023-01-23T04:53:14.032Z,103133.00
2023-01-23T04:55:40.995Z,103131.59
2023-01-23T04:58:07.611Z,103131.81
2023-01-23T05:00:34.096Z,103106.47
2023-01-23T05:03:01.161Z,103128.78
2023-01-23T05:05:27.672Z,103122.78
2023-01-23T05:07:54.106Z,103122.78
2023-01-23T05:10:21.199Z,103126.84
2023-01-23T05:12:47.808Z,103126.56
2023-01-23T05:15:14.261Z,103130.94
2023-01-23T05:17:40.725Z,103136.72
2023-01-23T05:20:08.082Z,103131.25
2023-01-23T05:22:34.511Z,103136.19
2023-01-23T05:25:01.466Z,103145.22
2023-01-23T05:27:28.017Z,103142.78
2023-01-23T05:29:54.429Z,103144.41
2023-01-23T05:32:20.937Z,103149.34
2023-01-23T05:34:47.362Z,103145.50
2023-01-23T05:37:13.848Z,103149.28
2023-01-23T05:39:40.318Z,103149.88
2023-01-23T05:42:06.775Z,103150.16
2023-01-23T05:44:33.630Z,103147.72
2023-01-23T05:47:00.108Z,103155.34
2023-01-23T05:49:26.527Z,103162.16
2023-01-23T05:51:52.982Z,103157.78
2023-01-23T05:54:19.494Z,103161.38
2023-01-23T05:56:45.974Z,103159.72
2023-01-23T05:59:12.526Z,103161.13
2023-01-23T06:01:38.982Z,103168.50
2023-01-23T06:04:05.412Z,103165.75
2023-01-23T06:06:32.023Z,103167.41
2023-01-23T06:08:59.649Z,103169.88
2023-01-23T06:11:26.187Z,103173.13
2023-01-23T06:13:52.695Z,103167.63
2023-01-23T06:16:19.200Z,103168.75
2023-01-23T06:18:45.648Z,103169.28
2023-01-23T06:21:12.324Z,103174.47
2023-01-23T06:23:38.832Z,103180.25
2023-01-23T06:26:05.582Z,103172.81
2023-01-23T06:28:32.048Z,103180.25
2023-01-23T06:31:03.903Z,103185.72
2023-01-23T06:33:31.028Z,103183.47
2023-01-23T06:36:01.661Z,103180.25
2023-01-23T06:38:29.169Z,103193.94
2023-01-23T06:40:55.668Z,103193.94
2023-01-23T06:43:23.164Z,103184.88
2023-01-23T06:45:49.602Z,103196.66
2023-01-23T06:48:17.076Z,103197.72
2023-01-23T06:50:44.002Z,103199.91
2023-01-23T06:53:14.541Z,103210.00
2023-01-23T06:55:41.005Z,103211.13
2023-01-23T06:58:07.682Z,103211.41
2023-01-23T07:00:34.433Z,103213.31
2023-01-23T07:03:03.833Z,103226.44
2023-01-23T07:05:31.514Z,103229.47
2023-01-23T07:07:58.011Z,103231.38
2023-01-23T07:10:26.289Z,103235.22
2023-01-23T07:12:52.733Z,103231.97
2023-01-23T07:15:19.212Z,103232.78
2023-01-23T07:17:45.704Z,103236.34
2023-01-23T07:20:12.484Z,103242.94
2023-01-23T07:22:38.955Z,103251.38
2023-01-23T07:25:05.896Z,103242.03
2023-01-23T07:27:33.174Z,103242.88
2023-01-23T07:29:59.659Z,103241.00
2023-01-23T07:32:26.125Z,103247.53
2023-01-23T07:34:53.158Z,103254.09
2023-01-23T07:37:19.627Z,103253.28
2023-01-23T07:39:46.056Z,103253.81
2023-01-23T07:42:12.523Z,103264.19
2023-01-23T07:44:39.074Z,103259.53
2023-01-23T07:47:05.581Z,103257.84
2023-01-23T07:49:32.058Z,103261.94
2023-01-23T07:51:58.534Z,103273.16
2023-01-23T07:54:25.039Z,103275.34
2023-01-23T07:56:51.510Z,103269.84
2023-01-23T07:59:17.996Z,103262.22
2023-01-23T08:01:44.729Z,103264.41
2023-01-23T08:04:11.270Z,103278.06
2023-01-23T08:06:38.179Z,103274.50
2023-01-23T08:09:04.715Z,103269.84
2023-01-23T08:11:33.499Z,103263.25
2023-01-23T08:14:00.899Z,103265.50
2023-01-23T08:16:27.968Z,103260.31
2023-01-23T08:18:54.543Z,103270.38
2023-01-23T08:21:21.466Z,103268.44
2023-01-23T08:23:47.957Z,103272.00
2023-01-23T08:26:16.664Z,103276.09
2023-01-23T08:28:44.479Z,103273.34
2023-01-23T08:31:12.632Z,103278.53
2023-01-23T08:33:39.612Z,103284.31
2023-01-23T08:36:09.520Z,103291.41
2023-01-23T08:38:37.547Z,103286.97
2023-01-23T08:41:04.313Z,103283.72
2023-01-23T08:43:31.755Z,103288.38
2023-01-23T08:45:59.433Z,103288.97
2023-01-23T08:48:27.351Z,103285.44
2023-01-23T08:51:00.882Z,103292.25
2023-01-23T08:53:27.958Z,103288.44
2023-01-23T08:55:59.084Z,103296.59
2023-01-23T08:58:25.929Z,103297.94
2023-01-23T09:00:52.422Z,103297.66
2023-01-23T09:03:18.985Z,103289.78
2023-01-23T09:05:45.441Z,103299.06
2023-01-23T09:08:11.961Z,103303.41
2023-01-23T09:10:38.507Z,103302.03
2023-01-23T09:13:05.315Z,103289.97
2023-01-23T09:15:32.409Z,103306.13
2023-01-23T09:17:58.960Z,103304.13
2023-01-23T09:20:29.190Z,103308.50
2023-01-23T09:22:55.708Z,103306.28
2023-01-23T09:25:22.262Z,103300.22
2023-01-23T09:27:48.852Z,103310.63
2023-01-23T09:30:15.664Z,103311.88
2023-01-23T09:32:42.112Z,103300.91
2023-01-23T09:35:09.012Z,103306.56
2023-01-23T09:37:58.410Z,103297.81
2023-01-23T09:40:28.328Z,103319.09
2023-01-23T09:42:58.458Z,103319.06
2023-01-23T09:45:27.500Z,103320.09
2023-01-23T09:48:18.772Z,103321.72
2023-01-23T09:50:59.271Z,103326.59
2023-01-23T09:53:28.852Z,103320.53
2023-01-23T09:56:14.524Z,103310.41
2023-01-23T09:58:44.919Z,103310.41
2023-01-23T10:01:13.465Z,103312.84
2023-01-23T10:03:48.156Z,103321.00
2023-01-23T10:06:25.333Z,103314.38
2023-01-23T10:08:54.680Z,103322.84
2023-01-23T10:11:38.661Z,103322.28
2023-01-23T10:14:29.485Z,103323.06
2023-01-23T10:17:20.720Z,103324.72
2023-01-23T10:20:25.228Z,103327.47
2023-01-23T10:23:15.790Z,103319.81
2023-01-23T10:25:42.898Z,103328.25
2023-01-23T10:28:27.503Z,103328.50
2023-01-23T10:31:00.777Z,103322.72
2023-01-23T10:33:40.603Z,103319.22
2023-01-23T10:36:48.020Z,103316.09
2023-01-23T10:39:26.854Z,103321.53
2023-01-23T10:42:01.473Z,103321.53
2023-01-23T10:44:28.385Z,103324.72
2023-01-23T10:47:00.466Z,103328.22
2023-01-23T10:49:30.382Z,103330.97
2023-01-23T10:51:57.681Z,103322.34
2023-01-23T10:54:33.906Z,103314.84
2023-01-23T10:57:03.438Z,103314.97
2023-01-23T10:59:39.784Z,103312.16
2023-01-23T11:02:15.960Z,103312.81
2023-01-23T11:04:45.351Z,103318.53
2023-01-23T11:07:16.598Z,103313.22
2023-01-23T11:09:51.413Z,103315.69
2023-01-23T11:12:22.601Z,103308.13
2023-01-23T11:14:49.403Z,103309.25
2023-01-23T11:17:20.486Z,103311.19
2023-01-23T11:19:51.605Z,103306.50
2023-01-23T11:22:28.864Z,103302.41
2023-01-23T11:24:56.039Z,103305.25
2023-01-23T11:27:29.812Z,103306.38
2023-01-23T11:30:02.228Z,103308.31
2023-01-23T11:32:33.191Z,103303.84
2023-01-23T11:35:12.923Z,103297.84
2023-01-23T11:37:41.046Z,103304.66
2023-01-23T11:40:13.185Z,103308.97
2023-01-23T11:42:41.911Z,103299.31
2023-01-23T11:45:29.552Z,103301.66
2023-01-23T11:48:14.663Z,103308.41
2023-01-23T11:50:55.294Z,103304.22
2023-01-23T11:53:45.409Z,103300.56
2023-01-23T11:56:43.833Z,103308.41
2023-01-23T11:59:38.017Z,103301.41
2023-01-23T12:02:43.327Z,103299.84
2023-01-23T12:05:24.851Z,103294.44
2023-01-23T12:08:07.493Z,103294.06
2023-01-23T12:10:54.079Z,103283.56
2023-01-23T12:13:38.554Z,103286.22
2023-01-23T12:16:28.834Z,103290.91
2023-01-23T12:18:55.312Z,103283.19
2023-01-23T12:21:27.559Z,103285.50
2023-01-23T12:23:54.025Z,103289.56
2023-01-23T12:26:22.631Z,103280.72
2023-01-23T12:29:22.205Z,103290.00
2023-01-23T12:31:54.793Z,103295.69
2023-01-23T12:34:30.236Z,103295.69
2023-01-23T12:37:35.673Z,103290.59
2023-01-23T12:40:22.787Z,103298.84
2023-01-23T12:43:04.729Z,103294.16
2023-01-23T12:45:32.823Z,103298.03
2023-01-23T12:48:11.539Z,103292.84
2023-01-23T12:50:47.426Z,103282.44
2023-01-23T12:53:18.548Z,103290.09
2023-01-23T12:55:54.388Z,103290.91
2023-01-23T12:58:23.543Z,103286.00
2023-01-23T13:01:04.189Z,103288.34
2023-01-23T13:04:01.529Z,103293.31
2023-01-23T13:06:52.543Z,103295.84
2023-01-23T13:09:38.029Z,103298.66
2023-01-23T13:12:21.795Z,103295.44
2023-01-23T13:15:10.596Z,103293.88
2023-01-23T13:17:45.505Z,103297.84
2023-01-23T13:20:54.679Z,103307.28
2023-01-23T13:23:33.200Z,103296.59
2023-01-23T13:26:22.978Z,103304.31
2023-01-23T13:28:53.911Z,103297.28
2023-01-23T13:31:34.556Z,103303.66
2023-01-23T13:34:15.003Z,103295.72
2023-01-23T13:36:47.044Z,103304.06
2023-01-23T13:39:13.426Z,103312.59
2023-01-23T13:41:39.857Z,103309.03
2023-01-23T13:44:40.939Z,103306.38
2023-01-23T14:24:50.180Z,103324.34
2023-01-23T14:27:30.195Z,103332.88
2023-01-23T14:30:20.154Z,103326.06
2023-01-23T14:32:46.731Z,103323.91
2023-01-23T14:35:25.485Z,103318.41
2023-01-23T14:37:53.606Z,103326.34
2023-01-23T14:40:27.793Z,103334.88
2023-01-23T14:42:59.905Z,103330.81
2023-01-23T14:45:32.224Z,103328.34
2023-01-23T14:48:06.153Z,103325.31
2023-01-23T14:50:33.794Z,103327.47
2023-01-23T14:53:05.816Z,103329.25
2023-01-23T14:55:37.793Z,103329.44
2023-01-23T14:58:04.840Z,103335.47
2023-01-23T15:00:32.387Z,103330.81
2023-01-23T15:02:58.976Z,103329.44
2023-01-23T15:05:28.102Z,103331.91
2023-01-23T15:07:58.550Z,103326.50
2023-01-23T15:10:28.510Z,103329.16
2023-01-23T15:13:02.420Z,103337.38
2023-01-23T15:15:30.532Z,103336.88
2023-01-23T15:18:00.676Z,103332.81
2023-01-23T15:20:30.843Z,103338.50
2023-01-23T15:22:58.379Z,103337.78
2023-01-23T15:25:33.595Z,103338.91
2023-01-23T15:27:59.956Z,103337.97
2023-01-23T15:30:35.516Z,103333.59
2023-01-23T15:33:07.367Z,103335.75
2023-01-23T15:35:38.005Z,103327.81
2023-01-23T15:38:08.537Z,103333.31
2023-01-23T15:40:38.148Z,103339.63
2023-01-23T15:43:10.296Z,103339.94
2023-01-23T15:45:36.836Z,103335.84
2023-01-23T15:48:03.761Z,103326.25
2023-01-23T15:50:30.418Z,103333.09
2023-01-23T15:52:56.959Z,103323.22
2023-01-23T15:55:26.523Z,103321.06
2023-01-23T15:57:53.888Z,103320.78
2023-01-23T16:00:25.834Z,103311.22
2023-01-23T16:02:56.830Z,103318.31
2023-01-23T16:05:30.068Z,103316.69
2023-01-23T16:08:00.992Z,103296.47
2023-01-23T16:10:33.788Z,103307.16
2023-01-23T16:13:00.511Z,103305.53
2023-01-23T16:15:30.039Z,103308.25
2023-01-23T16:17:57.205Z,103308.25
2023-01-23T16:20:28.382Z,103304.16
2023-01-23T16:23:01.892Z,103298.78
2023-01-23T16:25:44.071Z,103298.97
2023-01-23T16:28:16.218Z,103290.75
2023-01-23T16:30:42.895Z,103298.19
2023-01-23T16:33:09.526Z,103303.66
2023-01-23T16:35:36.426Z,103301.22
2023-01-23T16:38:03.200Z,103303.13
2023-01-23T16:40:33.074Z,103303.66
2023-01-23T16:43:02.782Z,103297.34
2023-01-23T16:45:31.172Z,103303.66
2023-01-23T16:47:58.448Z,103309.16
2023-01-23T16:50:37.059Z,103310.88
2023-01-23T16:53:06.781Z,103303.44
2023-01-23T16:55:37.905Z,103307.00
2023-01-23T16:58:06.696Z,103309.75
2023-01-23T17:00:35.401Z,103312.19
2023-01-23T17:03:07.299Z,103313.00
2023-01-23T17:05:33.832Z,103315.72
2023-01-23T17:08:00.290Z,103318.81
2023-01-23T17:10:37.869Z,103318.28
2023-01-23T17:13:11.598Z,103313.06
2023-01-23T17:15:38.176Z,103316.34
2023-01-23T17:18:05.106Z,103319.09
2023-01-23T17:20:31.884Z,103322.13
2023-01-23T17:22:58.522Z,103317.53
2023-01-23T17:25:26.954Z,103306.59
2023-01-23T17:28:11.147Z,103321.06
2023-01-23T17:30:40.071Z,103313.66
2023-01-23T17:33:17.417Z,103323.00
2023-01-23T17:35:44.653Z,103322.13
2023-01-23T17:38:18.461Z,103317.22
2023-01-23T17:40:45.387Z,103306.16
2023-01-23T17:43:13.672Z,103309.16
2023-01-23T17:45:42.823Z,103317.22
2023-01-23T17:48:14.454Z,103330.66
2023-01-23T17:50:46.055Z,103326.78
2023-01-23T17:53:16.810Z,103319.69
2023-01-23T17:55:46.952Z,103321.38
2023-01-23T17:58:14.288Z,103313.16
2023-01-23T18:00:42.978Z,103313.22
2023-01-23T18:03:13.817Z,103309.34
2023-01-23T18:05:40.323Z,103313.94
2023-01-23T18:08:06.815Z,103313.75
2023-01-23T18:10:34.904Z,103319.44
2023-01-23T18:13:16.984Z,103326.88
2023-01-23T18:16:08.091Z,103329.81
2023-01-23T18:18:40.400Z,103327.97
2023-01-23T18:21:14.706Z,103331.25
2023-01-23T18:23:41.492Z,103333.44
2023-01-23T18:26:36.911Z,103333.97
2023-01-23T18:29:36.292Z,103335.09
2023-01-23T18:32:33.643Z,103334.47
2023-01-23T18:35:29.083Z,103336.72
2023-01-23T18:38:00.555Z,103342.22
2023-01-23T18:40:29.235Z,103340.25
2023-01-23T18:43:18.887Z,103331.59
2023-01-23T18:45:45.655Z,103341.19
2023-01-23T18:48:24.605Z,103348.88
2023-01-23T18:51:09.985Z,103349.69
2023-01-23T18:54:07.063Z,103346.66
2023-01-23T18:56:58.119Z,103345.84
2023-01-23T18:59:50.725Z,103355.94
2023-01-23T19:02:40.018Z,103356.56
2023-01-23T19:05:18.462Z,103351.31
2023-01-23T19:07:45.913Z,103360.09
2023-01-23T19:10:18.021Z,103361.72
2023-01-23T19:13:07.599Z,103366.38
2023-01-23T19:15:37.090Z,103367.69
2023-01-23T19:18:15.824Z,103366.38
2023-01-23T19:21:09.330Z,103367.19
2023-01-23T19:23:43.461Z,103361.13
2023-01-23T19:26:13.248Z,103367.41
2023-01-23T19:28:40.050Z,103358.38
2023-01-23T19:31:12.247Z,103356.81
2023-01-23T19:33:38.773Z,103359.19
2023-01-23T19:36:11.091Z,103367.69
2023-01-23T19:38:37.517Z,103369.66
2023-01-23T19:41:05.064Z,103372.69
2023-01-23T19:43:32.098Z,103377.34
2023-01-23T19:45:59.834Z,103374.09
2023-01-23T19:48:26.281Z,103370.22
2023-01-23T19:50:52.824Z,103366.75
2023-01-23T19:53:19.361Z,103378.75
2023-01-23T19:55:45.916Z,103381.50
2023-01-23T19:58:12.562Z,103383.69
2023-01-23T20:00:39.007Z,103381.78
2023-01-23T20:03:05.511Z,103382.63
2023-01-23T20:05:32.428Z,103376.88
2023-01-23T20:07:59.181Z,103382.38
2023-01-23T20:10:25.677Z,103386.75
2023-01-23T20:12:52.360Z,103394.97
2023-01-23T20:15:21.555Z,103390.09
2023-01-23T20:17:48.281Z,103392.22
2023-01-23T20:20:15.204Z,103394.75
2023-01-23T20:22:43.381Z,103408.47
2023-01-23T20:25:15.082Z,103410.91
2023-01-23T20:27:41.984Z,103406.25
2023-01-23T20:30:13.669Z,103399.94
2023-01-23T20:32:40.152Z,103398.38
2023-01-23T20:35:06.838Z,103407.13
2023-01-23T20:37:33.456Z,103409.34
2023-01-23T20:40:00.039Z,103402.22
2023-01-23T20:42:26.510Z,103396.16
2023-01-23T20:44:53.005Z,103397.03
2023-01-23T20:47:19.500Z,103403.03
2023-01-23T20:49:45.961Z,103389.09
2023-01-23T20:52:31.055Z,103395.13
2023-01-23T20:54:57.685Z,103392.88
2023-01-23T20:57:44.134Z,103392.38
2023-01-23T21:00:11.308Z,103388.81
2023-01-23T21:02:37.793Z,103380.59
2023-01-23T21:05:04.428Z,103380.88
2023-01-23T21:07:30.964Z,103370.72
2023-01-23T21:09:57.417Z,103377.00
2023-01-23T21:12:23.892Z,103377.09
2023-01-23T21:14:50.414Z,103382.00
2023-01-23T21:17:16.947Z,103375.69
2023-01-23T21:19:44.567Z,103387.41
2023-01-23T21:22:11.037Z,103392.06
2023-01-23T21:24:37.688Z,103385.81
2023-01-23T21:27:05.603Z,103381.91
2023-01-23T21:29:32.727Z,103387.78
2023-01-23T21:31:59.398Z,103380.88
2023-01-23T21:34:26.375Z,103381.44
2023-01-23T21:36:53.013Z,103369.94
2023-01-23T21:39:20.010Z,103378.72
2023-01-23T21:41:46.469Z,103379.00
2023-01-23T21:44:13.301Z,103383.66
2023-01-23T21:46:40.334Z,103383.06
2023-01-23T21:49:06.969Z,103385.31
2023-01-23T21:51:33.458Z,103377.38
2023-01-23T21:54:00.012Z,103381.25
2023-01-23T21:56:26.489Z,103384.78
2023-01-23T21:58:53.349Z,103383.66
2023-01-23T22:01:32.083Z,103375.78
2023-01-23T22:04:04.772Z,103373.34
2023-01-23T22:06:32.937Z,103389.47
2023-01-23T22:08:59.800Z,103375.78
2023-01-23T22:11:26.790Z,103383.44
2023-01-23T22:13:53.865Z,103388.34
2023-01-23T22:16:25.333Z,103382.63
2023-01-23T22:18:55.007Z,103382.31
2023-01-23T22:21:21.533Z,103382.03
2023-01-23T22:23:48.010Z,103379.00
2023-01-23T22:26:14.476Z,103371.16
2023-01-23T22:28:40.982Z,103377.13
2023-01-23T22:31:12.621Z,103382.63
2023-01-23T22:33:41.496Z,103377.97
2023-01-23T22:36:12.038Z,103381.81
2023-01-23T22:38:38.553Z,103384.84
2023-01-23T22:41:06.405Z,103389.81
2023-01-23T22:43:34.287Z,103394.47
2023-01-23T22:46:07.799Z,103390.63
2023-01-23T22:48:35.630Z,103391.44
2023-01-23T22:51:04.643Z,103376.09
2023-01-23T22:53:31.628Z,103382.69
2023-01-23T22:55:58.527Z,103378.53
2023-01-23T22:58:25.325Z,103388.94
2023-01-23T23:00:53.189Z,103388.09
2023-01-23T23:03:21.036Z,103382.63
2023-01-23T23:05:55.718Z,103378.25
2023-01-23T23:08:22.155Z,103373.59
2023-01-23T23:11:07.412Z,103378.78
2023-01-23T23:13:38.686Z,103380.69
2023-01-23T23:16:07.955Z,103385.91
2023-01-23T23:22:22.109Z,103387.31
2023-01-23T23:24:48.593Z,103383.19
2023-01-23T23:27:15.070Z,103385.16
2023-01-23T23:29:41.556Z,103381.81
2023-01-23T23:32:08.091Z,103382.16
2023-01-23T23:34:36.216Z,103381.34
2023-01-23T23:37:03.628Z,103385.94
2023-01-23T23:39:30.099Z,103378.25
2023-01-23T23:41:56.690Z,103389.22
2023-01-23T23:44:23.217Z,103379.94
2023-01-23T23:46:49.690Z,103391.44
2023-01-23T23:49:16.193Z,103383.28
2023-01-23T23:51:42.683Z,103389.88
2023-01-23T23:54:09.142Z,103396.16
2023-01-23T23:56:35.649Z,103396.97
2023-01-23T23:59:02.108Z,103403.28
